sensor_id;sensor_type;location;lat;lon;timestamp;P1;durP1;ratioP1;P2;durP2;ratioP2
8293;SDS011;4185;41.506;24.938;2024-01-10T00:01:33;1.93;;;1.83;;
8293;SDS011;4185;41.506;24.938;2024-01-10T00:03:59;2.93;;;2.07;;
8293;SDS011;4185;41.506;24.938;2024-01-10T00:06:26;2.30;;;2.10;;
8293;SDS011;4185;41.506;24.938;2024-01-10T00:08:55;1.87;;;1.77;;
8293;SDS011;4185;41.506;24.938;2024-01-10T00:11:21;2.10;;;2.00;;
8293;SDS011;4185;41.506;24.938;2024-01-10T00:13:48;2.30;;;2.20;;
8293;SDS011;4185;41.506;24.938;2024-01-10T00:16:15;1.90;;;1.80;;
8293;SDS011;4185;41.506;24.938;2024-01-10T00:18:42;2.33;;;2.23;;
8293;SDS011;4185;41.506;24.938;2024-01-10T00:21:10;2.57;;;2.37;;
8293;SDS011;4185;41.506;24.938;2024-01-10T00:23:37;2.30;;;2.20;;
8293;SDS011;4185;41.506;24.938;2024-01-10T00:26:05;2.03;;;1.93;;
8293;SDS011;4185;41.506;24.938;2024-01-10T00:28:32;2.43;;;2.33;;
8293;SDS011;4185;41.506;24.938;2024-01-10T00:30:59;2.80;;;2.27;;
8293;SDS011;4185;41.506;24.938;2024-01-10T00:33:26;2.93;;;2.70;;
8293;SDS011;4185;41.506;24.938;2024-01-10T00:35:52;2.33;;;2.23;;
8293;SDS011;4185;41.506;24.938;2024-01-10T00:38:19;5.93;;;3.00;;
8293;SDS011;4185;41.506;24.938;2024-01-10T00:40:46;2.37;;;2.20;;
8293;SDS011;4185;41.506;24.938;2024-01-10T00:43:14;2.23;;;1.90;;
8293;SDS011;4185;41.506;24.938;2024-01-10T00:45:41;2.40;;;2.20;;
8293;SDS011;4185;41.506;24.938;2024-01-10T00:48:07;6.97;;;4.03;;
8293;SDS011;4185;41.506;24.938;2024-01-10T00:50:34;3.17;;;2.40;;
8293;SDS011;4185;41.506;24.938;2024-01-10T00:53:01;2.43;;;2.23;;
8293;SDS011;4185;41.506;24.938;2024-01-10T00:55:28;2.10;;;2.00;;
8293;SDS011;4185;41.506;24.938;2024-01-10T00:57:55;2.43;;;2.30;;
8293;SDS011;4185;41.506;24.938;2024-01-10T01:00:23;2.03;;;1.93;;
8293;SDS011;4185;41.506;24.938;2024-01-10T01:02:50;2.30;;;2.07;;
8293;SDS011;4185;41.506;24.938;2024-01-10T01:05:17;2.80;;;2.60;;
8293;SDS011;4185;41.506;24.938;2024-01-10T01:07:44;1.90;;;1.80;;
8293;SDS011;4185;41.506;24.938;2024-01-10T01:10:11;1.80;;;1.70;;
8293;SDS011;4185;41.506;24.938;2024-01-10T01:12:38;3.83;;;3.27;;
8293;SDS011;4185;41.506;24.938;2024-01-10T01:15:05;3.20;;;2.90;;
8293;SDS011;4185;41.506;24.938;2024-01-10T01:17:34;2.70;;;2.50;;
8293;SDS011;4185;41.506;24.938;2024-01-10T01:20:01;2.00;;;1.90;;
8293;SDS011;4185;41.506;24.938;2024-01-10T01:22:29;2.50;;;2.30;;
8293;SDS011;4185;41.506;24.938;2024-01-10T01:24:56;3.30;;;3.00;;
8293;SDS011;4185;41.506;24.938;2024-01-10T01:27:23;1.87;;;1.77;;
8293;SDS011;4185;41.506;24.938;2024-01-10T01:29:50;2.93;;;2.37;;
8293;SDS011;4185;41.506;24.938;2024-01-10T01:32:17;2.80;;;2.00;;
8293;SDS011;4185;41.506;24.938;2024-01-10T01:34:45;2.40;;;2.30;;
8293;SDS011;4185;41.506;24.938;2024-01-10T01:37:12;2.90;;;2.17;;
8293;SDS011;4185;41.506;24.938;2024-01-10T01:39:39;2.30;;;2.10;;
8293;SDS011;4185;41.506;24.938;2024-01-10T01:42:06;2.00;;;1.90;;
8293;SDS011;4185;41.506;24.938;2024-01-10T01:44:33;1.87;;;1.77;;
8293;SDS011;4185;41.506;24.938;2024-01-10T01:46:59;1.90;;;1.80;;
8293;SDS011;4185;41.506;24.938;2024-01-10T01:49:28;2.63;;;2.43;;
8293;SDS011;4185;41.506;24.938;2024-01-10T01:51:57;2.30;;;2.20;;
8293;SDS011;4185;41.506;24.938;2024-01-10T01:54:24;2.10;;;2.00;;
8293;SDS011;4185;41.506;24.938;2024-01-10T01:56:51;2.17;;;2.07;;
8293;SDS011;4185;41.506;24.938;2024-01-10T01:59:19;2.43;;;2.30;;
8293;SDS011;4185;41.506;24.938;2024-01-10T02:01:45;2.07;;;1.97;;
8293;SDS011;4185;41.506;24.938;2024-01-10T02:04:13;3.17;;;2.87;;
8293;SDS011;4185;41.506;24.938;2024-01-10T02:06:40;4.13;;;2.90;;
8293;SDS011;4185;41.506;24.938;2024-01-10T02:09:08;13.53;;;5.73;;
8293;SDS011;4185;41.506;24.938;2024-01-10T02:11:35;32.13;;;10.30;;
8293;SDS011;4185;41.506;24.938;2024-01-10T02:14:02;2.80;;;2.30;;
8293;SDS011;4185;41.506;24.938;2024-01-10T02:16:29;3.00;;;2.80;;
8293;SDS011;4185;41.506;24.938;2024-01-10T02:18:56;1.97;;;1.87;;
8293;SDS011;4185;41.506;24.938;2024-01-10T02:21:23;2.10;;;2.00;;
8293;SDS011;4185;41.506;24.938;2024-01-10T02:23:49;2.13;;;2.03;;
8293;SDS011;4185;41.506;24.938;2024-01-10T02:26:17;2.27;;;2.07;;
8293;SDS011;4185;41.506;24.938;2024-01-10T02:28:44;3.60;;;3.03;;
8293;SDS011;4185;41.506;24.938;2024-01-10T02:31:11;1.93;;;1.83;;
8293;SDS011;4185;41.506;24.938;2024-01-10T02:33:38;2.27;;;2.17;;
8293;SDS011;4185;41.506;24.938;2024-01-10T02:36:05;2.03;;;1.93;;
8293;SDS011;4185;41.506;24.938;2024-01-10T02:38:32;2.10;;;2.00;;
8293;SDS011;4185;41.506;24.938;2024-01-10T02:40:59;2.03;;;1.93;;
8293;SDS011;4185;41.506;24.938;2024-01-10T02:43:28;3.67;;;2.27;;
8293;SDS011;4185;41.506;24.938;2024-01-10T02:45:56;2.40;;;2.30;;
8293;SDS011;4185;41.506;24.938;2024-01-10T02:48:24;2.40;;;2.30;;
8293;SDS011;4185;41.506;24.938;2024-01-10T02:50:50;2.13;;;1.93;;
8293;SDS011;4185;41.506;24.938;2024-01-10T02:53:19;2.83;;;2.63;;
8293;SDS011;4185;41.506;24.938;2024-01-10T02:55:46;3.60;;;2.73;;
8293;SDS011;4185;41.506;24.938;2024-01-10T02:58:14;5.90;;;2.67;;
8293;SDS011;4185;41.506;24.938;2024-01-10T03:00:42;2.30;;;2.20;;
8293;SDS011;4185;41.506;24.938;2024-01-10T03:03:09;1.90;;;1.80;;
8293;SDS011;4185;41.506;24.938;2024-01-10T03:05:36;2.90;;;1.90;;
8293;SDS011;4185;41.506;24.938;2024-01-10T03:08:03;2.50;;;2.40;;
8293;SDS011;4185;41.506;24.938;2024-01-10T03:10:31;2.87;;;2.67;;
8293;SDS011;4185;41.506;24.938;2024-01-10T03:12:58;1.87;;;1.80;;
8293;SDS011;4185;41.506;24.938;2024-01-10T03:15:25;2.50;;;2.27;;
8293;SDS011;4185;41.506;24.938;2024-01-10T03:17:53;2.30;;;2.20;;
8293;SDS011;4185;41.506;24.938;2024-01-10T03:20:20;2.27;;;2.17;;
8293;SDS011;4185;41.506;24.938;2024-01-10T03:22:46;2.67;;;2.47;;
8293;SDS011;4185;41.506;24.938;2024-01-10T03:25:13;2.43;;;1.97;;
8293;SDS011;4185;41.506;24.938;2024-01-10T03:27:40;2.60;;;2.40;;
8293;SDS011;4185;41.506;24.938;2024-01-10T03:30:07;1.90;;;1.80;;
8293;SDS011;4185;41.506;24.938;2024-01-10T03:32:35;2.07;;;1.90;;
8293;SDS011;4185;41.506;24.938;2024-01-10T03:35:03;3.03;;;2.73;;
8293;SDS011;4185;41.506;24.938;2024-01-10T03:37:31;2.97;;;2.63;;
8293;SDS011;4185;41.506;24.938;2024-01-10T03:39:58;4.67;;;3.10;;
8293;SDS011;4185;41.506;24.938;2024-01-10T03:42:24;4.20;;;3.03;;
8293;SDS011;4185;41.506;24.938;2024-01-10T03:44:51;2.40;;;2.30;;
8293;SDS011;4185;41.506;24.938;2024-01-10T03:47:18;3.80;;;3.57;;
8293;SDS011;4185;41.506;24.938;2024-01-10T03:49:45;6.23;;;4.57;;
8293;SDS011;4185;41.506;24.938;2024-01-10T03:52:13;5.07;;;3.83;;
8293;SDS011;4185;41.506;24.938;2024-01-10T03:54:39;3.50;;;3.20;;
8293;SDS011;4185;41.506;24.938;2024-01-10T03:57:06;2.80;;;2.60;;
8293;SDS011;4185;41.506;24.938;2024-01-10T03:59:33;3.13;;;2.87;;
8293;SDS011;4185;41.506;24.938;2024-01-10T04:02:00;2.87;;;2.60;;
8293;SDS011;4185;41.506;24.938;2024-01-10T04:04:27;3.60;;;3.00;;
8293;SDS011;4185;41.506;24.938;2024-01-10T04:06:53;4.23;;;3.10;;
8293;SDS011;4185;41.506;24.938;2024-01-10T04:09:22;3.57;;;3.27;;
8293;SDS011;4185;41.506;24.938;2024-01-10T04:11:48;3.63;;;3.33;;
8293;SDS011;4185;41.506;24.938;2024-01-10T04:14:15;3.60;;;3.13;;
8293;SDS011;4185;41.506;24.938;2024-01-10T04:16:42;3.70;;;3.27;;
8293;SDS011;4185;41.506;24.938;2024-01-10T04:19:09;3.50;;;3.20;;
8293;SDS011;4185;41.506;24.938;2024-01-10T04:21:36;4.73;;;3.73;;
8293;SDS011;4185;41.506;24.938;2024-01-10T04:24:03;6.87;;;3.93;;
8293;SDS011;4185;41.506;24.938;2024-01-10T04:26:31;5.33;;;4.53;;
8293;SDS011;4185;41.506;24.938;2024-01-10T04:28:58;4.10;;;3.20;;
8293;SDS011;4185;41.506;24.938;2024-01-10T04:31:24;5.40;;;4.23;;
8293;SDS011;4185;41.506;24.938;2024-01-10T04:33:51;5.80;;;3.87;;
8293;SDS011;4185;41.506;24.938;2024-01-10T04:36:18;15.00;;;7.27;;
8293;SDS011;4185;41.506;24.938;2024-01-10T04:38:45;10.43;;;6.93;;
8293;SDS011;4185;41.506;24.938;2024-01-10T04:41:12;15.33;;;8.90;;
8293;SDS011;4185;41.506;24.938;2024-01-10T04:43:40;9.37;;;4.90;;
8293;SDS011;4185;41.506;24.938;2024-01-10T04:46:06;5.47;;;3.33;;
8293;SDS011;4185;41.506;24.938;2024-01-10T04:48:35;3.53;;;3.23;;
8293;SDS011;4185;41.506;24.938;2024-01-10T04:51:02;11.50;;;8.20;;
8293;SDS011;4185;41.506;24.938;2024-01-10T04:53:29;11.43;;;7.00;;
8293;SDS011;4185;41.506;24.938;2024-01-10T04:55:55;8.93;;;6.13;;
8293;SDS011;4185;41.506;24.938;2024-01-10T04:58:22;4.10;;;3.20;;
8293;SDS011;4185;41.506;24.938;2024-01-10T05:00:51;2.43;;;2.30;;
8293;SDS011;4185;41.506;24.938;2024-01-10T05:03:17;3.23;;;2.90;;
8293;SDS011;4185;41.506;24.938;2024-01-10T05:05:44;3.63;;;3.33;;
8293;SDS011;4185;41.506;24.938;2024-01-10T05:08:11;4.27;;;3.70;;
8293;SDS011;4185;41.506;24.938;2024-01-10T05:10:37;5.83;;;4.73;;
8293;SDS011;4185;41.506;24.938;2024-01-10T05:13:04;2.67;;;2.47;;
8293;SDS011;4185;41.506;24.938;2024-01-10T05:15:30;5.10;;;4.47;;
8293;SDS011;4185;41.506;24.938;2024-01-10T05:17:59;10.43;;;6.93;;
8293;SDS011;4185;41.506;24.938;2024-01-10T05:20:25;5.00;;;3.83;;
8293;SDS011;4185;41.506;24.938;2024-01-10T05:22:52;3.43;;;2.77;;
8293;SDS011;4185;41.506;24.938;2024-01-10T05:25:19;3.63;;;2.90;;
8293;SDS011;4185;41.506;24.938;2024-01-10T05:27:46;10.87;;;5.77;;
8293;SDS011;4185;41.506;24.938;2024-01-10T05:30:13;29.00;;;10.67;;
8293;SDS011;4185;41.506;24.938;2024-01-10T05:32:40;6.37;;;4.80;;
8293;SDS011;4185;41.506;24.938;2024-01-10T05:35:08;6.80;;;4.50;;
8293;SDS011;4185;41.506;24.938;2024-01-10T05:37:36;20.90;;;13.67;;
8293;SDS011;4185;41.506;24.938;2024-01-10T05:40:03;29.33;;;21.20;;
8293;SDS011;4185;41.506;24.938;2024-01-10T05:42:30;12.03;;;9.50;;
8293;SDS011;4185;41.506;24.938;2024-01-10T05:44:57;6.63;;;4.53;;
8293;SDS011;4185;41.506;24.938;2024-01-10T05:47:24;34.50;;;15.20;;
8293;SDS011;4185;41.506;24.938;2024-01-10T05:49:51;11.93;;;6.90;;
8293;SDS011;4185;41.506;24.938;2024-01-10T05:52:20;16.20;;;8.03;;
8293;SDS011;4185;41.506;24.938;2024-01-10T05:54:47;3.73;;;3.33;;
8293;SDS011;4185;41.506;24.938;2024-01-10T05:57:14;5.60;;;3.80;;
8293;SDS011;4185;41.506;24.938;2024-01-10T05:59:41;6.87;;;5.57;;
8293;SDS011;4185;41.506;24.938;2024-01-10T06:02:08;13.90;;;9.07;;
8293;SDS011;4185;41.506;24.938;2024-01-10T06:04:35;13.33;;;9.57;;
8293;SDS011;4185;41.506;24.938;2024-01-10T06:07:01;9.53;;;6.63;;
8293;SDS011;4185;41.506;24.938;2024-01-10T06:09:30;4.37;;;3.97;;
8293;SDS011;4185;41.506;24.938;2024-01-10T06:11:57;4.23;;;3.20;;
8293;SDS011;4185;41.506;24.938;2024-01-10T06:14:24;3.67;;;3.30;;
8293;SDS011;4185;41.506;24.938;2024-01-10T06:16:50;10.60;;;5.77;;
8293;SDS011;4185;41.506;24.938;2024-01-10T06:19:17;22.63;;;15.93;;
8293;SDS011;4185;41.506;24.938;2024-01-10T06:21:44;24.17;;;19.43;;
8293;SDS011;4185;41.506;24.938;2024-01-10T06:24:11;9.30;;;7.13;;
8293;SDS011;4185;41.506;24.938;2024-01-10T06:26:39;16.50;;;9.83;;
8293;SDS011;4185;41.506;24.938;2024-01-10T06:29:06;7.50;;;4.70;;
8293;SDS011;4185;41.506;24.938;2024-01-10T06:31:32;17.47;;;14.37;;
8293;SDS011;4185;41.506;24.938;2024-01-10T06:33:59;5.37;;;4.87;;
8293;SDS011;4185;41.506;24.938;2024-01-10T06:36:26;8.77;;;7.10;;
8293;SDS011;4185;41.506;24.938;2024-01-10T06:38:53;6.03;;;5.20;;
8293;SDS011;4185;41.506;24.938;2024-01-10T06:41:21;6.67;;;4.70;;
8293;SDS011;4185;41.506;24.938;2024-01-10T06:43:50;9.87;;;5.70;;
8293;SDS011;4185;41.506;24.938;2024-01-10T06:46:17;4.60;;;4.20;;
8293;SDS011;4185;41.506;24.938;2024-01-10T06:48:44;3.80;;;3.47;;
8293;SDS011;4185;41.506;24.938;2024-01-10T06:51:12;4.70;;;4.30;;
8293;SDS011;4185;41.506;24.938;2024-01-10T06:53:39;12.60;;;6.97;;
8293;SDS011;4185;41.506;24.938;2024-01-10T06:56:06;13.63;;;8.57;;
8293;SDS011;4185;41.506;24.938;2024-01-10T06:58:34;16.13;;;9.03;;
8293;SDS011;4185;41.506;24.938;2024-01-10T07:01:03;8.50;;;6.60;;
8293;SDS011;4185;41.506;24.938;2024-01-10T07:03:30;9.53;;;7.17;;
8293;SDS011;4185;41.506;24.938;2024-01-10T07:05:56;10.03;;;7.10;;
8293;SDS011;4185;41.506;24.938;2024-01-10T07:08:24;6.93;;;5.83;;
8293;SDS011;4185;41.506;24.938;2024-01-10T07:10:51;12.60;;;8.60;;
8293;SDS011;4185;41.506;24.938;2024-01-10T07:13:20;9.63;;;6.87;;
8293;SDS011;4185;41.506;24.938;2024-01-10T07:15:47;9.90;;;6.40;;
8293;SDS011;4185;41.506;24.938;2024-01-10T07:18:17;7.70;;;5.67;;
8293;SDS011;4185;41.506;24.938;2024-01-10T07:20:44;7.93;;;5.73;;
8293;SDS011;4185;41.506;24.938;2024-01-10T07:23:10;6.67;;;4.83;;
8293;SDS011;4185;41.506;24.938;2024-01-10T07:25:37;6.63;;;3.63;;
8293;SDS011;4185;41.506;24.938;2024-01-10T07:28:04;5.13;;;4.17;;
8293;SDS011;4185;41.506;24.938;2024-01-10T07:30:31;4.77;;;4.03;;
8293;SDS011;4185;41.506;24.938;2024-01-10T07:32:58;6.67;;;5.00;;
8293;SDS011;4185;41.506;24.938;2024-01-10T07:35:27;6.83;;;5.83;;
8293;SDS011;4185;41.506;24.938;2024-01-10T07:37:54;7.53;;;6.13;;
8293;SDS011;4185;41.506;24.938;2024-01-10T07:40:21;7.87;;;4.97;;
8293;SDS011;4185;41.506;24.938;2024-01-10T07:42:48;13.50;;;8.17;;
8293;SDS011;4185;41.506;24.938;2024-01-10T07:45:14;13.47;;;9.97;;
8293;SDS011;4185;41.506;24.938;2024-01-10T07:47:41;14.20;;;8.57;;
8293;SDS011;4185;41.506;24.938;2024-01-10T07:50:08;19.80;;;10.20;;
8293;SDS011;4185;41.506;24.938;2024-01-10T07:52:39;18.43;;;10.67;;
8293;SDS011;4185;41.506;24.938;2024-01-10T07:55:06;23.23;;;12.53;;
8293;SDS011;4185;41.506;24.938;2024-01-10T07:57:33;21.63;;;13.67;;
8293;SDS011;4185;41.506;24.938;2024-01-10T08:00:02;19.13;;;11.67;;
8293;SDS011;4185;41.506;24.938;2024-01-10T08:02:30;11.77;;;7.90;;
8293;SDS011;4185;41.506;24.938;2024-01-10T08:04:59;17.90;;;16.00;;
8293;SDS011;4185;41.506;24.938;2024-01-10T08:07:26;18.20;;;13.23;;
8293;SDS011;4185;41.506;24.938;2024-01-10T08:09:54;13.27;;;9.20;;
8293;SDS011;4185;41.506;24.938;2024-01-10T08:12:21;10.03;;;8.60;;
8293;SDS011;4185;41.506;24.938;2024-01-10T08:14:47;15.40;;;10.10;;
8293;SDS011;4185;41.506;24.938;2024-01-10T08:17:15;17.83;;;9.93;;
8293;SDS011;4185;41.506;24.938;2024-01-10T08:19:42;12.57;;;8.83;;
8293;SDS011;4185;41.506;24.938;2024-01-10T08:22:08;13.60;;;8.80;;
8293;SDS011;4185;41.506;24.938;2024-01-10T08:24:35;13.03;;;8.30;;
8293;SDS011;4185;41.506;24.938;2024-01-10T08:27:04;23.57;;;14.10;;
8293;SDS011;4185;41.506;24.938;2024-01-10T08:29:30;19.83;;;12.63;;
8293;SDS011;4185;41.506;24.938;2024-01-10T08:31:57;11.17;;;6.90;;
8293;SDS011;4185;41.506;24.938;2024-01-10T08:34:24;11.20;;;7.83;;
8293;SDS011;4185;41.506;24.938;2024-01-10T08:36:52;6.60;;;4.87;;
8293;SDS011;4185;41.506;24.938;2024-01-10T08:39:18;7.40;;;5.53;;
8293;SDS011;4185;41.506;24.938;2024-01-10T08:41:47;7.33;;;5.83;;
8293;SDS011;4185;41.506;24.938;2024-01-10T08:44:15;7.67;;;6.00;;
8293;SDS011;4185;41.506;24.938;2024-01-10T08:46:42;7.73;;;6.37;;
8293;SDS011;4185;41.506;24.938;2024-01-10T08:49:08;10.10;;;7.93;;
8293;SDS011;4185;41.506;24.938;2024-01-10T08:51:36;8.70;;;5.93;;
8293;SDS011;4185;41.506;24.938;2024-01-10T08:54:02;8.93;;;5.90;;
8293;SDS011;4185;41.506;24.938;2024-01-10T08:56:29;5.17;;;4.53;;
8293;SDS011;4185;41.506;24.938;2024-01-10T08:58:56;4.33;;;3.93;;
8293;SDS011;4185;41.506;24.938;2024-01-10T09:01:24;7.03;;;4.83;;
8293;SDS011;4185;41.506;24.938;2024-01-10T09:03:51;4.53;;;3.50;;
8293;SDS011;4185;41.506;24.938;2024-01-10T09:06:18;6.70;;;5.90;;
8293;SDS011;4185;41.506;24.938;2024-01-10T09:08:44;11.40;;;10.47;;
8293;SDS011;4185;41.506;24.938;2024-01-10T09:11:10;5.17;;;4.63;;
8293;SDS011;4185;41.506;24.938;2024-01-10T09:13:37;15.23;;;13.67;;
8293;SDS011;4185;41.506;24.938;2024-01-10T09:16:05;8.20;;;7.37;;
8293;SDS011;4185;41.506;24.938;2024-01-10T09:18:33;7.03;;;6.33;;
8293;SDS011;4185;41.506;24.938;2024-01-10T09:21:00;5.20;;;4.27;;
8293;SDS011;4185;41.506;24.938;2024-01-10T09:23:27;9.93;;;6.97;;
8293;SDS011;4185;41.506;24.938;2024-01-10T09:25:54;6.33;;;4.97;;
8293;SDS011;4185;41.506;24.938;2024-01-10T09:28:21;4.33;;;3.77;;
8293;SDS011;4185;41.506;24.938;2024-01-10T09:30:48;4.90;;;4.00;;
8293;SDS011;4185;41.506;24.938;2024-01-10T09:33:16;5.93;;;4.37;;
8293;SDS011;4185;41.506;24.938;2024-01-10T09:35:45;5.27;;;4.20;;
8293;SDS011;4185;41.506;24.938;2024-01-10T09:38:12;6.47;;;4.30;;
8293;SDS011;4185;41.506;24.938;2024-01-10T09:40:39;5.00;;;4.47;;
8293;SDS011;4185;41.506;24.938;2024-01-10T09:43:06;4.20;;;3.80;;
8293;SDS011;4185;41.506;24.938;2024-01-10T09:45:34;4.30;;;3.47;;
8293;SDS011;4185;41.506;24.938;2024-01-10T09:48:01;8.47;;;4.97;;
8293;SDS011;4185;41.506;24.938;2024-01-10T09:50:29;16.73;;;14.93;;
8293;SDS011;4185;41.506;24.938;2024-01-10T09:53:05;6.77;;;6.17;;
8293;SDS011;4185;41.506;24.938;2024-01-10T09:55:34;6.37;;;5.77;;
8293;SDS011;4185;41.506;24.938;2024-01-10T09:58:03;6.20;;;4.30;;
8293;SDS011;4185;41.506;24.938;2024-01-10T10:00:31;5.70;;;4.50;;
8293;SDS011;4185;41.506;24.938;2024-01-10T10:03:00;5.83;;;5.30;;
8293;SDS011;4185;41.506;24.938;2024-01-10T10:05:28;5.70;;;4.70;;
8293;SDS011;4185;41.506;24.938;2024-01-10T10:07:55;5.53;;;5.03;;
8293;SDS011;4185;41.506;24.938;2024-01-10T10:10:24;8.03;;;6.30;;
8293;SDS011;4185;41.506;24.938;2024-01-10T10:12:52;4.20;;;3.43;;
8293;SDS011;4185;41.506;24.938;2024-01-10T10:15:21;9.80;;;8.93;;
8293;SDS011;4185;41.506;24.938;2024-01-10T10:17:51;5.60;;;5.00;;
8293;SDS011;4185;41.506;24.938;2024-01-10T10:20:20;8.27;;;5.67;;
8293;SDS011;4185;41.506;24.938;2024-01-10T10:22:57;5.57;;;5.07;;
8293;SDS011;4185;41.506;24.938;2024-01-10T10:25:28;5.43;;;4.93;;
8293;SDS011;4185;41.506;24.938;2024-01-10T10:27:56;7.23;;;6.10;;
8293;SDS011;4185;41.506;24.938;2024-01-10T10:30:23;8.17;;;5.37;;
8293;SDS011;4185;41.506;24.938;2024-01-10T10:32:50;6.03;;;5.43;;
8293;SDS011;4185;41.506;24.938;2024-01-10T10:35:18;6.23;;;4.43;;
8293;SDS011;4185;41.506;24.938;2024-01-10T10:37:46;6.87;;;5.70;;
8293;SDS011;4185;41.506;24.938;2024-01-10T10:40:14;6.17;;;5.53;;
8293;SDS011;4185;41.506;24.938;2024-01-10T10:42:44;9.43;;;8.57;;
8293;SDS011;4185;41.506;24.938;2024-01-10T10:45:14;10.97;;;9.03;;
8293;SDS011;4185;41.506;24.938;2024-01-10T10:47:42;16.10;;;13.73;;
8293;SDS011;4185;41.506;24.938;2024-01-10T10:50:12;16.93;;;14.83;;
8293;SDS011;4185;41.506;24.938;2024-01-10T10:52:41;17.30;;;14.10;;
8293;SDS011;4185;41.506;24.938;2024-01-10T10:55:13;18.43;;;14.80;;
8293;SDS011;4185;41.506;24.938;2024-01-10T10:57:43;18.17;;;12.53;;
8293;SDS011;4185;41.506;24.938;2024-01-10T11:00:12;13.23;;;7.60;;
8293;SDS011;4185;41.506;24.938;2024-01-10T11:02:41;11.57;;;8.07;;
8293;SDS011;4185;41.506;24.938;2024-01-10T11:05:09;4.77;;;4.20;;
8293;SDS011;4185;41.506;24.938;2024-01-10T11:07:36;3.70;;;3.40;;
8293;SDS011;4185;41.506;24.938;2024-01-10T11:10:04;5.07;;;4.53;;
8293;SDS011;4185;41.506;24.938;2024-01-10T11:15:46;4.63;;;4.10;;
8293;SDS011;4185;41.506;24.938;2024-01-10T11:18:39;4.90;;;4.27;;
8293;SDS011;4185;41.506;24.938;2024-01-10T11:21:19;6.70;;;6.10;;
8293;SDS011;4185;41.506;24.938;2024-01-10T11:23:53;10.07;;;8.27;;
8293;SDS011;4185;41.506;24.938;2024-01-10T11:26:22;13.07;;;11.67;;
8293;SDS011;4185;41.506;24.938;2024-01-10T11:28:51;9.90;;;8.90;;
8293;SDS011;4185;41.506;24.938;2024-01-10T11:31:26;17.30;;;15.50;;
8293;SDS011;4185;41.506;24.938;2024-01-10T11:33:55;4.23;;;3.83;;
8293;SDS011;4185;41.506;24.938;2024-01-10T11:36:22;22.60;;;18.40;;
8293;SDS011;4185;41.506;24.938;2024-01-10T11:38:53;29.30;;;24.13;;
8293;SDS011;4185;41.506;24.938;2024-01-10T11:41:22;19.60;;;13.90;;
8293;SDS011;4185;41.506;24.938;2024-01-10T11:46:55;12.43;;;10.03;;
8293;SDS011;4185;41.506;24.938;2024-01-10T11:49:23;9.47;;;8.57;;
8293;SDS011;4185;41.506;24.938;2024-01-10T11:51:52;8.57;;;7.63;;
8293;SDS011;4185;41.506;24.938;2024-01-10T11:54:36;6.40;;;5.00;;
8293;SDS011;4185;41.506;24.938;2024-01-10T11:57:07;4.57;;;4.13;;
8293;SDS011;4185;41.506;24.938;2024-01-10T11:59:36;4.90;;;4.07;;
8293;SDS011;4185;41.506;24.938;2024-01-10T12:02:04;6.17;;;4.67;;
8293;SDS011;4185;41.506;24.938;2024-01-10T12:04:31;5.20;;;4.50;;
8293;SDS011;4185;41.506;24.938;2024-01-10T12:07:00;5.77;;;4.67;;
8293;SDS011;4185;41.506;24.938;2024-01-10T12:09:28;3.83;;;3.43;;
8293;SDS011;4185;41.506;24.938;2024-01-10T12:11:55;4.80;;;3.60;;
8293;SDS011;4185;41.506;24.938;2024-01-10T12:14:22;5.07;;;4.00;;
8293;SDS011;4185;41.506;24.938;2024-01-10T12:16:51;3.93;;;3.53;;
8293;SDS011;4185;41.506;24.938;2024-01-10T12:19:18;4.77;;;3.97;;
8293;SDS011;4185;41.506;24.938;2024-01-10T12:21:45;4.13;;;3.73;;
8293;SDS011;4185;41.506;24.938;2024-01-10T12:24:13;4.70;;;3.83;;
8293;SDS011;4185;41.506;24.938;2024-01-10T12:26:43;6.33;;;4.13;;
8293;SDS011;4185;41.506;24.938;2024-01-10T12:29:10;3.77;;;3.10;;
8293;SDS011;4185;41.506;24.938;2024-01-10T12:31:38;4.93;;;3.77;;
8293;SDS011;4185;41.506;24.938;2024-01-10T12:34:08;3.77;;;3.10;;
8293;SDS011;4185;41.506;24.938;2024-01-10T12:36:35;5.00;;;4.33;;
8293;SDS011;4185;41.506;24.938;2024-01-10T12:39:02;4.67;;;4.00;;
8293;SDS011;4185;41.506;24.938;2024-01-10T12:41:32;5.33;;;4.07;;
8293;SDS011;4185;41.506;24.938;2024-01-10T12:43:59;5.97;;;4.57;;
8293;SDS011;4185;41.506;24.938;2024-01-10T12:46:28;3.70;;;3.10;;
8293;SDS011;4185;41.506;24.938;2024-01-10T12:48:58;5.03;;;3.67;;
8293;SDS011;4185;41.506;24.938;2024-01-10T12:51:28;4.37;;;3.63;;
8293;SDS011;4185;41.506;24.938;2024-01-10T12:53:55;4.33;;;3.33;;
8293;SDS011;4185;41.506;24.938;2024-01-10T12:56:23;6.83;;;5.10;;
8293;SDS011;4185;41.506;24.938;2024-01-10T12:58:51;7.03;;;4.30;;
8293;SDS011;4185;41.506;24.938;2024-01-10T13:01:17;6.50;;;5.07;;
8293;SDS011;4185;41.506;24.938;2024-01-10T13:03:45;4.27;;;3.63;;
8293;SDS011;4185;41.506;24.938;2024-01-10T13:06:13;5.70;;;4.33;;
8293;SDS011;4185;41.506;24.938;2024-01-10T13:08:42;5.03;;;4.53;;
8293;SDS011;4185;41.506;24.938;2024-01-10T13:11:09;6.30;;;5.00;;
8293;SDS011;4185;41.506;24.938;2024-01-10T13:13:36;9.23;;;7.30;;
8293;SDS011;4185;41.506;24.938;2024-01-10T13:16:03;5.50;;;4.33;;
8293;SDS011;4185;41.506;24.938;2024-01-10T13:18:30;13.53;;;9.00;;
8293;SDS011;4185;41.506;24.938;2024-01-10T13:20:57;17.77;;;11.47;;
8293;SDS011;4185;41.506;24.938;2024-01-10T13:23:24;8.17;;;5.50;;
8293;SDS011;4185;41.506;24.938;2024-01-10T13:25:52;14.00;;;9.03;;
8293;SDS011;4185;41.506;24.938;2024-01-10T13:28:19;7.20;;;5.67;;
8293;SDS011;4185;41.506;24.938;2024-01-10T13:30:46;13.03;;;8.73;;
8293;SDS011;4185;41.506;24.938;2024-01-10T13:33:13;14.57;;;8.37;;
8293;SDS011;4185;41.506;24.938;2024-01-10T13:35:39;11.60;;;6.27;;
8293;SDS011;4185;41.506;24.938;2024-01-10T13:38:06;14.00;;;8.03;;
8293;SDS011;4185;41.506;24.938;2024-01-10T13:40:33;8.53;;;5.83;;
8293;SDS011;4185;41.506;24.938;2024-01-10T13:43:01;12.80;;;7.40;;
8293;SDS011;4185;41.506;24.938;2024-01-10T13:45:28;12.80;;;7.20;;
8293;SDS011;4185;41.506;24.938;2024-01-10T13:47:55;9.30;;;5.70;;
8293;SDS011;4185;41.506;24.938;2024-01-10T13:50:22;7.83;;;4.43;;
8293;SDS011;4185;41.506;24.938;2024-01-10T13:52:50;6.50;;;4.03;;
8293;SDS011;4185;41.506;24.938;2024-01-10T13:55:19;5.07;;;3.70;;
8293;SDS011;4185;41.506;24.938;2024-01-10T13:57:46;5.27;;;4.10;;
8293;SDS011;4185;41.506;24.938;2024-01-10T14:00:14;6.07;;;4.10;;
8293;SDS011;4185;41.506;24.938;2024-01-10T14:02:41;4.83;;;3.60;;
8293;SDS011;4185;41.506;24.938;2024-01-10T14:05:08;4.87;;;3.50;;
8293;SDS011;4185;41.506;24.938;2024-01-10T14:07:35;4.20;;;3.40;;
8293;SDS011;4185;41.506;24.938;2024-01-10T14:10:02;6.60;;;4.70;;
8293;SDS011;4185;41.506;24.938;2024-01-10T14:12:30;5.83;;;4.70;;
8293;SDS011;4185;41.506;24.938;2024-01-10T14:14:57;9.93;;;5.63;;
8293;SDS011;4185;41.506;24.938;2024-01-10T14:17:26;9.53;;;5.37;;
8293;SDS011;4185;41.506;24.938;2024-01-10T14:19:53;18.43;;;10.00;;
8293;SDS011;4185;41.506;24.938;2024-01-10T14:22:20;13.50;;;8.13;;
8293;SDS011;4185;41.506;24.938;2024-01-10T14:24:48;7.90;;;4.40;;
8293;SDS011;4185;41.506;24.938;2024-01-10T14:27:15;3.77;;;3.27;;
8293;SDS011;4185;41.506;24.938;2024-01-10T14:29:42;4.47;;;3.83;;
8293;SDS011;4185;41.506;24.938;2024-01-10T14:32:09;5.37;;;4.03;;
8293;SDS011;4185;41.506;24.938;2024-01-10T14:34:40;7.00;;;4.37;;
8293;SDS011;4185;41.506;24.938;2024-01-10T14:37:06;8.83;;;6.53;;
8293;SDS011;4185;41.506;24.938;2024-01-10T14:39:33;9.60;;;5.70;;
8293;SDS011;4185;41.506;24.938;2024-01-10T14:42:04;9.03;;;5.80;;
8293;SDS011;4185;41.506;24.938;2024-01-10T14:44:31;7.57;;;4.73;;
8293;SDS011;4185;41.506;24.938;2024-01-10T14:46:59;8.83;;;5.00;;
8293;SDS011;4185;41.506;24.938;2024-01-10T14:49:28;10.03;;;5.63;;
8293;SDS011;4185;41.506;24.938;2024-01-10T14:51:56;14.47;;;7.90;;
8293;SDS011;4185;41.506;24.938;2024-01-10T14:54:23;7.77;;;4.73;;
8293;SDS011;4185;41.506;24.938;2024-01-10T14:56:50;5.40;;;4.20;;
8293;SDS011;4185;41.506;24.938;2024-01-10T14:59:18;6.80;;;4.10;;
8293;SDS011;4185;41.506;24.938;2024-01-10T15:01:45;5.17;;;4.00;;
8293;SDS011;4185;41.506;24.938;2024-01-10T15:04:12;5.50;;;4.80;;
8293;SDS011;4185;41.506;24.938;2024-01-10T15:06:42;8.73;;;5.43;;